Time;durP1;ratioP1;P1;durP2;ratioP2;P2;SDS_P1;SDS_P2;PMS_P1;PMS_P2;Temp;Humidity;BMP_temperature;BMP_pressure;BME280_temperature;BME280_humidity;BME280_pressure;Samples;Min_cycle;Max_cycle;Signal;HPM_P1;HPM_P2
2022/03/26 00:01:23;;;;;;;26.90;20.17;;;;;;;10.57;44.99;154074.31;5037414;28;20801;-77
2022/03/26 00:04:00;;;;;;;27.10;19.53;;;;;;;10.58;44.79;154076.91;5049770;28;20463;-76
2022/03/26 00:06:35;;;;;;;30.97;20.67;;;;;;;10.55;44.91;154067.84;5033603;28;21018;-77
2022/03/26 00:09:11;;;;;;;29.53;20.57;;;;;;;10.51;45.24;154058.75;5033721;28;20447;-77
2022/03/26 00:11:47;;;;;;;30.53;20.57;;;;;;;10.40;45.59;154030.31;5050977;28;20458;-76
2022/03/26 00:14:22;;;;;;;33.27;21.17;;;;;;;10.31;45.78;154007.00;5032842;28;20428;-76
2022/03/26 00:16:58;;;;;;;32.13;20.33;;;;;;;10.26;46.05;153994.03;5052462;28;20451;-77
2022/03/26 00:19:34;;;;;;;36.57;22.00;;;;;;;10.28;45.83;153999.22;5040995;28;20440;-75
2022/03/26 00:22:10;;;;;;;31.83;21.73;;;;;;;10.27;45.70;153996.66;5051900;28;20455;-75
2022/03/26 00:24:45;;;;;;;28.90;20.60;;;;;;;10.30;45.86;154004.38;5068947;28;20473;-75
2022/03/26 00:27:21;;;;;;;37.90;20.37;;;;;;;10.22;45.97;153984.97;5016800;28;20958;-75
2022/03/26 00:29:57;;;;;;;31.90;21.10;;;;;;;10.22;46.35;153984.97;5048178;28;20420;-75
2022/03/26 00:32:32;;;;;;;31.13;21.97;;;;;;;10.24;45.93;153990.19;5035994;28;20524;-75
2022/03/26 00:35:10;;;;;;;30.40;21.60;;;;;;;10.24;46.16;153988.88;5052697;28;20777;-75
2022/03/26 00:37:45;;;;;;;32.03;20.50;;;;;;;10.22;45.96;153983.66;5036000;28;20937;-75
2022/03/26 00:40:21;;;;;;;30.23;20.93;;;;;;;10.19;46.37;153977.19;5049218;28;20435;-75
2022/03/26 00:42:56;;;;;;;28.23;20.23;;;;;;;10.14;46.15;153964.25;5051370;28;20562;-76
2022/03/26 00:45:32;;;;;;;31.27;21.30;;;;;;;10.16;46.13;153968.16;5049744;28;20793;-75
2022/03/26 00:48:08;;;;;;;27.60;19.97;;;;;;;10.14;46.40;153964.25;5048450;28;20473;-75
2022/03/26 00:50:45;;;;;;;29.40;19.17;;;;;;;10.09;46.69;153951.25;5044525;28;20479;-75
2022/03/26 00:53:20;;;;;;;27.40;18.60;;;;;;;10.10;46.34;153953.88;5032025;28;20786;-75
2022/03/26 00:55:56;;;;;;;29.77;19.63;;;;;;;10.05;46.24;153939.63;5048464;28;20867;-75
2022/03/26 00:58:32;;;;;;;29.73;19.10;;;;;;;10.02;46.72;153933.16;5032727;28;20529;-75
2022/03/26 01:01:08;;;;;;;26.47;19.20;;;;;;;9.96;47.18;153916.31;5033292;28;20574;-75
2022/03/26 01:03:44;;;;;;;29.27;20.03;;;;;;;9.94;46.93;153911.16;5030981;28;20468;-75
2022/03/26 01:06:21;;;;;;;28.70;19.07;;;;;;;9.91;46.87;153903.38;5039236;28;20450;-75
2022/03/26 01:08:56;;;;;;;26.40;18.83;;;;;;;9.87;47.01;153893.06;5044429;28;20976;-75
2022/03/26 01:11:32;;;;;;;31.87;21.20;;;;;;;9.80;47.16;153877.50;5035338;28;20458;-75
2022/03/26 01:14:08;;;;;;;31.50;20.90;;;;;;;9.82;47.22;153882.69;5049600;28;20434;-74
2022/03/26 01:16:44;;;;;;;31.70;18.80;;;;;;;9.77;47.43;153869.75;5015864;28;20436;-75
2022/03/26 01:19:20;;;;;;;32.37;19.90;;;;;;;9.77;47.32;153868.44;5031557;28;20429;-75
2022/03/26 01:21:56;;;;;;;32.50;19.50;;;;;;;9.66;47.49;153841.25;5016456;28;20779;-74
2022/03/26 01:24:32;;;;;;;29.50;19.27;;;;;;;9.65;47.72;153837.41;5032476;28;20502;-74
2022/03/26 01:27:08;;;;;;;29.57;18.80;;;;;;;9.63;47.62;153832.25;5035841;28;20462;-75
2022/03/26 01:29:44;;;;;;;29.17;19.80;;;;;;;9.63;47.71;153833.53;5051874;28;20481;-75
2022/03/26 01:32:19;;;;;;;29.80;19.97;;;;;;;9.54;47.77;153810.25;5051626;28;20447;-74
2022/03/26 01:34:55;;;;;;;30.60;19.90;;;;;;;9.51;48.30;153801.16;5035905;28;20934;-75
2022/03/26 01:37:32;;;;;;;31.23;20.67;;;;;;;9.50;48.24;153799.91;5031963;28;20447;-74
2022/03/26 01:40:08;;;;;;;31.70;20.87;;;;;;;9.48;48.20;153794.69;5016735;28;20957;-75
2022/03/26 01:42:44;;;;;;;32.37;21.60;;;;;;;9.47;48.23;153792.13;5038952;28;20443;-75
2022/03/26 01:45:19;;;;;;;31.10;20.43;;;;;;;9.42;48.39;153779.22;5030749;28;20450;-74
2022/03/26 01:47:55;;;;;;;27.07;18.80;;;;;;;9.47;48.14;153792.13;5020502;28;20455;-75
2022/03/26 01:50:31;;;;;;;33.10;21.23;;;;;;;9.39;48.63;153771.44;5048019;28;20526;-74
2022/03/26 01:53:08;;;;;;;28.53;19.50;;;;;;;9.30;48.80;153748.13;5039551;28;20553;-75
2022/03/26 01:55:44;;;;;;;30.43;20.20;;;;;;;9.31;49.08;153750.75;5047887;28;20521;-75
2022/03/26 01:58:19;;;;;;;28.50;19.10;;;;;;;9.23;49.47;153730.03;5048126;28;20507;-75
2022/03/26 02:00:55;;;;;;;27.37;18.83;;;;;;;9.17;49.80;153715.81;5030063;28;20435;-75
2022/03/26 02:03:30;;;;;;;25.50;19.10;;;;;;;9.24;49.41;153731.34;5046840;28;20471;-75
2022/03/26 02:06:06;;;;;;;30.73;20.73;;;;;;;9.24;49.18;153732.59;5031181;28;20443;-75
2022/03/26 02:08:43;;;;;;;25.97;19.80;;;;;;;9.22;49.47;153727.44;5032899;28;20942;-74
2022/03/26 02:11:19;;;;;;;24.03;18.60;;;;;;;9.14;50.11;153706.75;5045972;28;20557;-75
2022/03/26 02:13:55;;;;;;;29.67;20.50;;;;;;;9.13;49.92;153705.44;5050735;28;20439;-76
2022/03/26 02:16:32;;;;;;;27.83;19.67;;;;;;;9.05;50.24;153684.75;5055100;28;20455;-74
2022/03/26 02:19:08;;;;;;;29.03;20.17;;;;;;;9.04;50.06;153680.88;5055342;28;20423;-75
2022/03/26 02:21:47;;;;;;;27.07;18.70;;;;;;;9.02;49.94;153675.72;5038522;28;20478;-76
2022/03/26 02:24:23;;;;;;;31.13;19.60;;;;;;;8.98;50.26;153665.34;5053936;28;20833;-76
2022/03/26 02:26:59;;;;;;;31.30;20.57;;;;;;;8.92;50.60;153649.88;5055107;28;20538;-76
2022/03/26 02:29:34;;;;;;;29.13;19.90;;;;;;;8.84;50.64;153630.44;5055015;28;20438;-76
2022/03/26 02:32:10;;;;;;;29.77;20.40;;;;;;;8.83;51.24;153627.88;5041127;28;20456;-76
2022/03/26 02:34:47;;;;;;;26.27;19.77;;;;;;;8.78;51.27;153613.66;5050570;28;20423;-76
2022/03/26 02:37:24;;;;;;;28.10;19.90;;;;;;;8.68;51.10;153589.13;5024910;28;20549;-76
2022/03/26 02:40:00;;;;;;;27.57;18.60;;;;;;;8.66;51.33;153582.66;5039514;28;20434;-76
2022/03/26 02:42:36;;;;;;;27.93;19.43;;;;;;;8.61;51.01;153569.69;5069903;28;20851;-76
2022/03/26 02:45:11;;;;;;;24.53;16.67;;;;;;;8.57;51.38;153561.97;5054519;28;20502;-77
2022/03/26 02:47:50;;;;;;;26.37;19.53;;;;;;;8.55;51.90;153556.75;5054674;28;20454;-76
2022/03/26 02:50:26;;;;;;;25.83;18.53;;;;;;;8.47;51.59;153536.06;5041745;28;20438;-76
2022/03/26 02:53:03;;;;;;;27.23;20.07;;;;;;;8.41;52.29;153520.59;5041795;28;20791;-76
2022/03/26 02:55:39;;;;;;;29.30;19.30;;;;;;;8.44;51.92;153528.34;5051387;28;20459;-76
2022/03/26 02:58:15;;;;;;;29.60;20.73;;;;;;;8.39;51.89;153515.38;5038283;28;20813;-77
2022/03/26 03:00:50;;;;;;;29.00;19.37;;;;;;;8.40;51.98;153518.00;5070620;28;20439;-77
2022/03/26 03:03:26;;;;;;;27.37;19.57;;;;;;;8.34;52.36;153502.47;5071411;28;20434;-76
2022/03/26 03:06:02;;;;;;;29.40;19.43;;;;;;;8.31;52.63;153494.72;5063054;28;20458;-76
2022/03/26 03:08:39;;;;;;;30.83;19.30;;;;;;;8.28;52.17;153487.00;5034681;28;20451;-76
2022/03/26 03:11:14;;;;;;;29.50;19.73;;;;;;;8.25;52.43;153479.19;5038543;28;20477;-77
2022/03/26 03:13:50;;;;;;;28.83;18.90;;;;;;;8.27;52.40;153483.09;5038586;28;20787;-76
2022/03/26 03:16:25;;;;;;;26.87;18.80;;;;;;;8.31;52.50;153494.72;5055568;28;20470;-75
2022/03/26 03:19:01;;;;;;;26.97;17.73;;;;;;;8.30;52.01;153492.16;5053713;28;20785;-74
2022/03/26 03:21:36;;;;;;;25.27;18.93;;;;;;;8.28;52.20;153487.00;5055907;28;20529;-75
2022/03/26 03:24:13;;;;;;;31.27;19.80;;;;;;;8.34;51.84;153502.47;5038203;28;20458;-74
2022/03/26 03:26:49;;;;;;;31.03;18.50;;;;;;;8.39;51.50;153515.38;5036834;28;20486;-74
2022/03/26 03:29:24;;;;;;;27.03;18.47;;;;;;;8.35;51.86;153505.06;5037839;28;20443;-75
2022/03/26 03:31:59;;;;;;;25.20;18.97;;;;;;;8.34;52.10;153502.47;5038553;28;20937;-75
2022/03/26 03:34:35;;;;;;;26.10;17.93;;;;;;;8.36;51.39;153506.38;5053609;28;20441;-73
2022/03/26 03:37:11;;;;;;;24.33;17.63;;;;;;;8.28;51.93;153487.00;5041817;28;20824;-76
2022/03/26 03:39:48;;;;;;;28.00;17.57;;;;;;;8.25;51.81;153479.19;5018914;28;20448;-76
2022/03/26 03:42:23;;;;;;;31.13;19.23;;;;;;;8.24;51.69;153476.59;5034100;28;21028;-76
2022/03/26 03:44:59;;;;;;;24.10;17.47;;;;;;;8.25;52.00;153479.19;5033000;28;20460;-76
2022/03/26 03:47:34;;;;;;;26.30;18.03;;;;;;;8.22;52.12;153471.44;5038418;28;20812;-76
2022/03/26 03:50:11;;;;;;;27.70;18.37;;;;;;;8.18;51.97;153459.81;5053162;28;20805;-76
2022/03/26 03:52:46;;;;;;;25.90;17.43;;;;;;;8.16;52.31;153454.59;5053975;28;20427;-73
2022/03/26 03:55:24;;;;;;;25.83;17.97;;;;;;;8.14;52.29;153449.44;5050975;28;20479;-76
2022/03/26 03:58:00;;;;;;;24.40;17.07;;;;;;;8.12;52.24;153445.59;5033390;28;20483;-76
2022/03/26 04:00:35;;;;;;;24.33;17.30;;;;;;;8.11;52.37;153443.00;5049801;28;20446;-75
2022/03/26 04:03:11;;;;;;;29.30;18.40;;;;;;;8.08;52.48;153435.22;5056368;28;20542;-75
2022/03/26 04:05:46;;;;;;;26.23;17.53;;;;;;;8.03;52.63;153422.31;5049899;28;20992;-76
2022/03/26 04:08:22;;;;;;;27.47;18.70;;;;;;;7.99;52.97;153413.25;5052047;28;20446;-76
2022/03/26 04:10:59;;;;;;;26.33;17.83;;;;;;;7.99;52.55;153412.00;5049071;28;20529;-75
2022/03/26 04:13:35;;;;;;;26.90;18.30;;;;;;;7.97;53.00;153406.78;5037040;28;20451;-75
2022/03/26 04:16:10;;;;;;;27.23;17.63;;;;;;;7.93;53.28;153397.78;5033164;28;20439;-76
2022/03/26 04:18:46;;;;;;;26.30;18.27;;;;;;;7.92;52.98;153395.19;5049106;28;20447;-76
2022/03/26 04:21:22;;;;;;;29.70;18.07;;;;;;;7.92;52.78;153393.88;5029880;28;20451;-76
2022/03/26 04:23:57;;;;;;;30.40;17.80;;;;;;;7.87;53.13;153382.25;5017468;28;20463;-75
2022/03/26 04:26:34;;;;;;;27.30;17.20;;;;;;;7.82;53.38;153368.03;5033924;28;20451;-76
2022/03/26 04:29:10;;;;;;;30.20;18.23;;;;;;;7.80;53.18;153362.88;5033678;28;20486;-75
2022/03/26 04:31:46;;;;;;;28.63;18.43;;;;;;;7.73;53.86;153344.81;5043611;28;20459;-75
2022/03/26 04:34:22;;;;;;;28.10;19.80;;;;;;;7.71;53.98;153340.91;5051806;28;20470;-76
2022/03/26 04:36:57;;;;;;;27.50;18.43;;;;;;;7.68;54.27;153333.16;5036971;28;20447;-76
2022/03/26 04:39:33;;;;;;;24.03;17.83;;;;;;;7.68;53.90;153333.16;5036072;28;20879;-74
2022/03/26 04:42:11;;;;;;;25.70;16.93;;;;;;;7.61;54.53;153313.78;5034125;28;20518;-76
2022/03/26 04:44:46;;;;;;;28.97;19.77;;;;;;;7.63;54.08;153320.25;5032324;28;20460;-76
2022/03/26 04:47:22;;;;;;;32.07;18.40;;;;;;;7.56;54.81;153302.19;5057488;28;20459;-76
2022/03/26 04:49:57;;;;;;;24.70;17.10;;;;;;;7.52;54.49;153291.81;5033372;28;20824;-76
2022/03/26 04:52:33;;;;;;;26.40;17.87;;;;;;;7.49;54.64;153284.13;5047770;28;20466;-76
2022/03/26 04:55:10;;;;;;;26.00;17.50;;;;;;;7.46;54.90;153276.34;5048909;28;20439;-76
2022/03/26 04:57:49;;;;;;;26.57;17.10;;;;;;;7.38;54.81;153254.41;5049131;28;20471;-76
2022/03/26 05:00:25;;;;;;;27.67;18.13;;;;;;;7.21;54.78;153211.78;5044009;28;20457;-76
2022/03/26 05:03:01;;;;;;;24.23;17.40;;;;;;;7.16;55.14;153198.84;5052011;28;20450;-76
2022/03/26 05:05:36;;;;;;;26.70;18.40;;;;;;;7.12;55.49;153188.56;5050636;28;20463;-75
2022/03/26 05:08:12;;;;;;;27.73;19.33;;;;;;;7.14;55.68;153193.72;5051000;28;20435;-76
2022/03/26 05:10:47;;;;;;;23.70;16.70;;;;;;;7.13;55.83;153191.09;5038405;28;20539;-75
2022/03/26 05:13:24;;;;;;;27.80;17.87;;;;;;;7.17;56.28;153202.75;5048630;28;20446;-75
2022/03/26 05:16:02;;;;;;;26.47;17.80;;;;;;;7.20;55.70;153210.47;5053142;28;20411;-75
2022/03/26 05:18:37;;;;;;;28.10;18.30;;;;;;;7.20;55.50;153209.22;5050965;28;20451;-75
2022/03/26 05:21:13;;;;;;;27.47;18.80;;;;;;;7.19;56.08;153207.91;5034954;28;20446;-76
2022/03/26 05:23:48;;;;;;;27.13;17.20;;;;;;;7.12;56.30;153188.56;5035963;28;20474;-74
2022/03/26 05:26:24;;;;;;;24.03;17.37;;;;;;;7.18;56.25;153205.31;5051611;28;20454;-76
2022/03/26 05:29:01;;;;;;;26.23;17.27;;;;;;;7.04;56.50;153169.16;5034998;28;20450;-75
2022/03/26 05:31:37;;;;;;;25.50;17.20;;;;;;;6.95;56.35;153145.94;5053253;28;20526;-76
2022/03/26 05:34:12;;;;;;;27.20;18.67;;;;;;;6.92;56.66;153136.88;5051586;28;20442;-75
2022/03/26 05:36:48;;;;;;;25.00;18.07;;;;;;;6.86;57.53;153122.69;5051728;28;20639;-76
2022/03/26 05:39:24;;;;;;;24.20;17.90;;;;;;;6.93;56.26;153140.78;5043991;28;20447;-76
2022/03/26 05:42:00;;;;;;;28.50;17.20;;;;;;;6.98;56.89;153153.69;5051661;28;20450;-75
2022/03/26 05:44:37;;;;;;;25.57;17.67;;;;;;;7.00;56.96;153158.84;5051580;28;20466;-76
2022/03/26 05:47:12;;;;;;;27.50;18.30;;;;;;;6.99;56.54;153156.25;5050280;28;20471;-76
2022/03/26 05:49:48;;;;;;;22.53;15.97;;;;;;;6.98;56.83;153153.69;5033914;28;20953;-77
2022/03/26 05:52:24;;;;;;;25.73;17.47;;;;;;;7.01;57.16;153160.13;5051265;28;20497;-77
2022/03/26 05:54:59;;;;;;;28.50;18.27;;;;;;;7.03;57.30;153165.28;5051537;28;20430;-77
2022/03/26 05:57:35;;;;;;;24.27;19.07;;;;;;;7.07;57.12;153175.66;5025784;28;20470;-76
2022/03/26 06:00:14;;;;;;;26.23;19.30;;;;;;;7.15;57.32;153197.56;5051393;28;20821;-75
2022/03/26 06:02:49;;;;;;;26.27;17.40;;;;;;;7.20;56.92;153209.22;5049356;28;20541;-75
2022/03/26 06:05:25;;;;;;;28.97;18.80;;;;;;;7.22;57.30;153215.66;5050640;28;20473;-75
2022/03/26 06:08:01;;;;;;;29.80;19.30;;;;;;;7.22;56.86;153215.66;5046533;28;20481;-75
2022/03/26 06:10:36;;;;;;;27.83;18.60;;;;;;;7.30;57.06;153236.34;5033093;28;20442;-75
2022/03/26 06:13:12;;;;;;;27.37;19.03;;;;;;;7.39;56.75;153257.00;5039536;28;20436;-76
2022/03/26 06:15:48;;;;;;;25.83;18.57;;;;;;;7.46;57.67;153275.06;5031653;28;20442;-75
2022/03/26 06:18:24;;;;;;;28.73;19.23;;;;;;;7.62;56.66;153316.41;5049937;28;20442;-75
2022/03/26 06:21:00;;;;;;;29.70;19.10;;;;;;;7.86;56.50;153378.41;5034826;28;20454;-75
2022/03/26 06:23:36;;;;;;;26.33;18.80;;;;;;;8.14;55.78;153450.75;5051186;28;20426;-76
2022/03/26 06:26:11;;;;;;;29.77;19.50;;;;;;;8.45;54.88;153529.63;5050174;28;20889;-76
2022/03/26 06:28:47;;;;;;;24.07;17.90;;;;;;;8.58;54.69;153563.22;5032695;28;20451;-75
2022/03/26 06:31:24;;;;;;;26.20;17.57;;;;;;;8.68;54.70;153587.81;5048585;28;20455;-75
2022/03/26 06:34:00;;;;;;;27.40;17.20;;;;;;;8.78;54.66;153613.66;5050027;28;20849;-75
2022/03/26 06:36:36;;;;;;;29.97;19.57;;;;;;;8.92;54.58;153649.88;5048949;28;20548;-75
2022/03/26 06:39:12;;;;;;;24.50;19.90;;;;;;;9.06;52.99;153687.34;5051042;28;20466;-75
2022/03/26 06:41:48;;;;;;;29.37;18.90;;;;;;;9.20;53.50;153722.28;5037994;28;20442;-75
2022/03/26 06:44:23;;;;;;;29.60;19.43;;;;;;;9.39;52.44;153771.44;5030422;28;20436;-75
2022/03/26 06:47:00;;;;;;;27.70;19.30;;;;;;;9.70;51.92;153851.63;5039590;28;20457;-75
2022/03/26 06:49:36;;;;;;;25.97;19.53;;;;;;;9.75;51.61;153863.28;5019501;28;20439;-75
2022/03/26 06:52:11;;;;;;;33.60;18.60;;;;;;;9.84;51.62;153886.59;5045043;28;20553;-76
2022/03/26 06:54:47;;;;;;;26.50;17.37;;;;;;;9.82;50.34;153882.69;5026144;28;20455;-76
2022/03/26 06:57:23;;;;;;;28.20;19.77;;;;;;;9.78;50.94;153871.03;5030003;28;20965;-76
2022/03/26 06:59:58;;;;;;;30.83;19.70;;;;;;;9.90;49.42;153900.81;5049567;28;20443;-76
2022/03/26 07:02:35;;;;;;;27.27;18.80;;;;;;;9.93;49.52;153908.59;5053136;28;20502;-73
2022/03/26 07:05:12;;;;;;;28.50;18.87;;;;;;;9.95;49.74;153913.75;5039564;28;20831;-75
2022/03/26 07:07:47;;;;;;;25.57;18.17;;;;;;;9.96;49.37;153916.31;5037380;28;20473;-76
2022/03/26 07:10:24;;;;;;;27.37;18.37;;;;;;;10.21;49.00;153981.09;5043756;28;20498;-76
2022/03/26 07:12:59;;;;;;;31.23;21.50;;;;;;;10.28;48.50;154000.50;5032788;28;20934;-76
2022/03/26 07:15:35;;;;;;;26.60;18.23;;;;;;;10.11;49.02;153955.19;5068436;28;20446;-76
2022/03/26 07:18:16;;;;;;;29.60;18.43;;;;;;;10.19;48.78;153975.94;5051996;28;20488;-76
2022/03/26 07:20:56;;;;;;;26.10;17.60;;;;;;;10.23;48.81;153987.56;5030378;28;20442;-75
2022/03/26 07:23:31;;;;;;;27.67;19.53;;;;;;;10.40;49.46;154030.31;5053663;28;20941;-75
2022/03/26 07:26:18;;;;;;;27.53;19.57;;;;;;;10.60;49.51;154080.78;5044860;28;20482;-75
2022/03/26 07:28:55;;;;;;;27.83;18.90;;;;;;;10.59;48.57;154079.47;5053402;28;20438;-76
2022/03/26 07:31:30;;;;;;;31.10;18.23;;;;;;;10.91;47.63;154161.06;5053560;28;20454;-77
2022/03/26 07:34:08;;;;;;;28.27;20.37;;;;;;;10.84;47.90;154144.25;5053853;28;20443;-76
2022/03/26 07:36:45;;;;;;;28.53;21.03;;;;;;;10.96;47.31;154175.31;5038371;28;20504;-77
2022/03/26 07:39:20;;;;;;;34.10;19.67;;;;;;;11.15;46.90;154221.94;5035044;28;20455;-76
2022/03/26 07:41:56;;;;;;;28.80;18.77;;;;;;;11.21;47.08;154238.78;5033732;28;20451;-76
2022/03/26 07:44:32;;;;;;;28.77;19.30;;;;;;;11.34;46.74;154272.47;5025672;28;20458;-76
2022/03/26 07:47:08;;;;;;;24.83;18.40;;;;;;;11.46;45.68;154302.28;5034885;28;20454;-76
2022/03/26 07:49:44;;;;;;;25.20;18.10;;;;;;;11.70;45.54;154364.53;5052254;28;20446;-76
2022/03/26 07:52:20;;;;;;;29.70;19.90;;;;;;;11.60;45.11;154339.84;5052682;28;20528;-76
2022/03/26 07:54:56;;;;;;;28.90;21.80;;;;;;;11.57;45.67;154330.75;5052076;28;20941;-76
2022/03/26 07:57:31;;;;;;;31.07;20.53;;;;;;;11.71;44.97;154367.09;5051293;28;20528;-77
2022/03/26 08:00:09;;;;;;;30.93;20.80;;;;;;;11.92;44.60;154421.53;5035949;28;20443;-76
2022/03/26 08:02:50;;;;;;;29.70;19.90;;;;;;;11.86;44.29;154405.97;5055653;28;20447;-76
2022/03/26 08:05:27;;;;;;;32.27;20.40;;;;;;;11.97;44.09;154433.19;5069432;28;20470;-76
2022/03/26 08:08:02;;;;;;;27.50;19.27;;;;;;;11.89;44.53;154412.44;5067022;28;20960;-76
2022/03/26 08:10:41;;;;;;;30.47;21.80;;;;;;;11.81;44.83;154391.75;5052938;28;20453;-76
2022/03/26 08:13:18;;;;;;;28.53;19.63;;;;;;;11.80;44.86;154390.44;5033049;28;20530;-76
2022/03/26 08:15:53;;;;;;;30.97;19.50;;;;;;;12.18;44.27;154488.94;5032773;28;20424;-75
2022/03/26 08:18:29;;;;;;;27.50;20.20;;;;;;;12.40;43.65;154543.41;5050407;28;20440;-76
2022/03/26 08:21:18;;;;;;;40.83;19.47;;;;;;;12.45;44.38;154556.34;5052681;28;20461;-77
2022/03/26 08:23:54;;;;;;;25.30;18.73;;;;;;;12.62;44.44;154600.47;5052643;28;20450;-77
2022/03/26 08:26:29;;;;;;;26.67;20.17;;;;;;;12.46;43.50;154558.97;5048097;28;20576;-77
2022/03/26 08:29:05;;;;;;;29.67;22.27;;;;;;;12.62;43.75;154600.47;5060716;28;20518;-76
2022/03/26 08:31:40;;;;;;;37.40;23.90;;;;;;;12.75;43.74;154634.19;5060410;28;20537;-77
2022/03/26 08:34:18;;;;;;;29.43;20.90;;;;;;;12.73;44.15;154629.00;5053865;28;20415;-77
2022/03/26 08:36:55;;;;;;;33.60;22.00;;;;;;;12.82;43.18;154653.63;5039461;28;20443;-77
2022/03/26 08:39:30;;;;;;;29.30;19.50;;;;;;;13.09;42.70;154722.44;5032308;28;20445;-77
2022/03/26 08:42:08;;;;;;;29.43;19.77;;;;;;;13.41;42.64;154805.50;5050343;28;20447;-76
2022/03/26 08:44:47;;;;;;;27.23;19.80;;;;;;;13.46;41.93;154815.84;5032853;28;20439;-75
2022/03/26 08:47:22;;;;;;;29.70;20.30;;;;;;;13.38;42.94;154797.69;5032982;28;20448;-75
2022/03/26 08:49:59;;;;;;;29.13;20.80;;;;;;;13.04;43.02;154708.13;5047114;28;20496;-76
2022/03/26 08:52:37;;;;;;;30.70;21.00;;;;;;;13.10;43.27;154725.06;5037184;28;20438;-75
2022/03/26 08:55:12;;;;;;;29.90;21.17;;;;;;;13.42;42.93;154806.81;5043132;28;20443;-75
2022/03/26 08:57:48;;;;;;;29.70;19.60;;;;;;;13.33;42.55;154784.72;5049331;28;20471;-75
2022/03/26 09:00:24;;;;;;;31.60;22.13;;;;;;;13.30;42.08;154776.94;5041501;28;20804;-75
2022/03/26 09:03:00;;;;;;;32.50;21.53;;;;;;;13.19;43.04;154748.38;5049882;28;20783;-78
2022/03/26 09:05:36;;;;;;;32.97;21.13;;;;;;;13.34;43.13;154787.28;5033377;28;20541;-75
2022/03/26 09:08:12;;;;;;;31.27;20.80;;;;;;;13.34;42.07;154786.03;5046731;28;20530;-75
2022/03/26 09:10:48;;;;;;;27.87;22.17;;;;;;;13.18;42.99;154744.50;5034950;28;20431;-75
2022/03/26 09:13:24;;;;;;;34.27;22.60;;;;;;;13.15;43.50;154738.03;5042225;28;20446;-75
2022/03/26 09:15:59;;;;;;;30.20;22.37;;;;;;;13.21;43.09;154752.31;5035289;28;20439;-75
2022/03/26 09:18:35;;;;;;;31.30;22.00;;;;;;;13.15;43.42;154738.03;5045112;28;20512;-75
2022/03/26 09:21:11;;;;;;;32.47;20.17;;;;;;;13.50;43.22;154826.25;5030433;28;20486;-75
2022/03/26 09:23:48;;;;;;;30.30;22.13;;;;;;;13.31;42.32;154779.56;5052307;28;20415;-75
2022/03/26 09:26:23;;;;;;;31.93;20.93;;;;;;;13.17;43.73;154743.22;5025222;28;20467;-75
2022/03/26 09:28:59;;;;;;;32.67;21.23;;;;;;;12.94;43.33;154683.50;5047718;28;20444;-75
2022/03/26 09:31:34;;;;;;;28.77;21.00;;;;;;;13.02;43.21;154704.25;5041519;28;20459;-75
2022/03/26 09:34:10;;;;;;;31.40;22.00;;;;;;;13.13;43.07;154732.78;5031506;28;20466;-75
2022/03/26 09:36:46;;;;;;;32.23;21.97;;;;;;;13.06;43.14;154714.59;5031180;28;20440;-75
2022/03/26 09:39:23;;;;;;;29.40;21.97;;;;;;;13.05;42.37;154710.72;5016244;28;20443;-75
2022/03/26 09:41:59;;;;;;;36.13;21.40;;;;;;;12.71;43.28;154625.09;5016962;28;20812;-76
2022/03/26 09:44:35;;;;;;;31.03;22.43;;;;;;;12.64;43.85;154606.94;5050023;28;20637;-76
2022/03/26 09:47:11;;;;;;;30.40;21.53;;;;;;;12.72;44.03;154627.72;5058648;28;20848;-75
2022/03/26 09:49:46;;;;;;;31.50;21.30;;;;;;;12.75;43.21;154634.19;5051044;28;20434;-76
2022/03/26 09:52:22;;;;;;;27.73;20.50;;;;;;;12.62;43.60;154601.78;5068321;28;20447;-75
2022/03/26 09:54:59;;;;;;;30.20;21.60;;;;;;;12.94;43.66;154683.50;5044334;28;20529;-75
2022/03/26 09:57:35;;;;;;;29.90;22.70;;;;;;;12.93;42.40;154680.88;5044945;28;20489;-76
2022/03/26 10:00:11;;;;;;;32.67;21.97;;;;;;;12.92;43.62;154677.00;5051019;28;20446;-75
2022/03/26 10:02:50;;;;;;;29.03;22.03;;;;;;;13.10;43.83;154725.06;5067818;28;20439;-75
2022/03/26 10:05:32;;;;;;;28.93;21.60;;;;;;;13.25;43.05;154762.66;5050896;28;20945;-75
2022/03/26 10:08:18;;;;;;;30.43;22.70;;;;;;;13.18;42.71;154745.81;5045886;28;20446;-75
2022/03/26 10:10:55;;;;;;;32.13;22.87;;;;;;;13.21;43.46;154753.56;5038227;28;20443;-75
2022/03/26 10:13:36;;;;;;;30.93;22.73;;;;;;;13.36;43.14;154792.53;5030904;28;20937;-75
2022/03/26 10:16:13;;;;;;;29.97;21.87;;;;;;;13.25;42.24;154763.97;5015796;28;20922;-75
2022/03/26 10:18:50;;;;;;;32.17;22.73;;;;;;;13.28;42.45;154771.75;5033761;28;20840;-75
2022/03/26 10:21:27;;;;;;;35.33;21.43;;;;;;;13.43;42.08;154810.66;5049538;28;20443;-75
2022/03/26 10:24:06;;;;;;;31.50;21.97;;;;;;;13.54;42.74;154836.63;5051197;28;20435;-76
2022/03/26 10:26:43;;;;;;;34.60;21.90;;;;;;;13.61;42.04;154856.06;5050963;28;20485;-75
2022/03/26 10:29:19;;;;;;;33.10;21.30;;;;;;;13.75;41.22;154891.13;5032776;28;20443;-75
2022/03/26 10:34:51;;;;;;;30.40;20.97;;;;;;;14.29;40.31;155031.38;5030845;28;20938;-75
2022/03/26 10:37:27;;;;;;;29.20;21.80;;;;;;;14.43;40.82;155067.75;5019023;28;20458;-75
2022/03/26 10:40:16;;;;;;;31.60;21.93;;;;;;;14.66;39.66;155124.91;5034453;28;20439;-75
2022/03/26 10:42:58;;;;;;;29.93;22.07;;;;;;;14.62;39.02;155117.09;5053337;28;20447;-75
2022/03/26 10:45:37;;;;;;;31.63;22.13;;;;;;;14.59;39.07;155109.31;5027158;28;20444;-75
2022/03/26 10:48:13;;;;;;;29.90;20.77;;;;;;;14.70;38.22;155136.59;5049617;28;20484;-75
2022/03/26 10:50:55;;;;;;;29.07;20.07;;;;;;;14.80;38.27;155161.31;5051382;28;20446;-75
2022/03/26 10:53:35;;;;;;;39.10;20.57;;;;;;;14.91;38.69;155189.84;5038951;28;20435;-75
2022/03/26 10:56:12;;;;;;;33.30;21.80;;;;;;;14.98;38.00;155208.06;5050428;28;20454;-75
2022/03/26 10:58:49;;;;;;;29.70;21.90;;;;;;;15.06;37.38;155228.84;5050322;28;20849;-75
2022/03/26 11:01:24;;;;;;;31.27;21.53;;;;;;;15.08;36.97;155235.34;5047002;28;20466;-75
2022/03/26 11:04:00;;;;;;;26.43;20.60;;;;;;;15.20;36.38;155266.50;5035567;28;20914;-76
2022/03/26 11:06:39;;;;;;;34.83;21.10;;;;;;;15.31;35.56;155293.78;5049611;28;20467;-75
2022/03/26 11:09:16;;;;;;;27.50;20.43;;;;;;;15.35;36.01;155302.91;5064007;28;20819;-75
2022/03/26 11:11:51;;;;;;;26.23;20.30;;;;;;;15.42;35.30;155322.41;5053165;28;20571;-76
2022/03/26 11:14:33;;;;;;;27.17;20.70;;;;;;;15.32;35.80;155296.41;5053507;28;20423;-75
2022/03/26 11:17:18;;;;;;;23.70;17.93;;;;;;;15.45;35.47;155330.19;5034965;28;20434;-75
2022/03/26 11:20:10;;;;;;;27.57;19.20;;;;;;;15.43;34.92;155323.72;5030363;28;20549;-75
2022/03/26 11:22:58;;;;;;;26.30;17.57;;;;;;;15.48;34.81;155338.06;5053135;28;20435;-74
2022/03/26 11:25:49;;;;;;;25.87;18.53;;;;;;;15.59;35.59;155366.66;5050884;28;20526;-77
2022/03/26 11:28:38;;;;;;;26.37;17.97;;;;;;;15.67;34.20;155387.41;5040091;28;20448;-77
2022/03/26 11:31:20;;;;;;;31.40;20.77;;;;;;;15.50;34.39;155343.25;5050976;28;20442;-74
2022/03/26 11:34:03;;;;;;;32.43;20.80;;;;;;;15.51;34.41;155345.88;5035881;28;20439;-77
2022/03/26 11:36:39;;;;;;;30.20;19.33;;;;;;;15.67;35.22;155386.16;5045533;28;20443;-76
2022/03/26 11:39:17;;;;;;;24.43;18.00;;;;;;;15.76;33.98;155410.84;5047055;28;20999;-76
2022/03/26 11:41:54;;;;;;;25.77;18.00;;;;;;;15.76;33.75;155409.53;5051271;28;20443;-77
2022/03/26 11:44:33;;;;;;;24.47;18.80;;;;;;;15.77;33.90;155413.47;5052593;28;20521;-77
2022/03/26 11:53:13;;;;;;;25.80;18.37;;;;;;;15.65;32.49;155380.91;5039969;28;20446;-76
2022/03/26 11:55:49;;;;;;;22.07;16.90;;;;;;;15.93;33.03;155452.44;5047611;28;21160;-74
2022/03/26 11:58:27;;;;;;;27.83;18.43;;;;;;;15.97;32.22;155464.13;5031685;28;20475;-75
2022/03/26 12:01:03;;;;;;;22.43;18.10;;;;;;;15.91;32.25;155448.56;5033856;28;20970;-75
2022/03/26 12:03:44;;;;;;;26.20;18.57;;;;;;;15.89;32.36;155442.00;5036965;28;20482;-75
2022/03/26 12:06:39;;;;;;;25.03;18.20;;;;;;;16.02;33.35;155477.13;5067213;28;20672;-75